createdAt,value
2019-03-21T00:00:49.485Z,40.20
2019-03-21T00:01:48.004Z,51.40
2019-03-21T00:02:48.004Z,34.59
2019-03-21T00:03:47.985Z,38.90
2019-03-21T00:04:48.023Z,47.00
2019-03-21T00:05:48.021Z,39.90
2019-03-21T00:06:47.952Z,40.29
2019-03-21T00:07:47.944Z,45.40
2019-03-21T00:08:47.927Z,48.50
2019-03-21T00:09:47.922Z,59.20
2019-03-21T00:10:47.960Z,59.70
2019-03-21T00:11:47.895Z,57.29
2019-03-21T00:12:47.884Z,58.70
2019-03-21T00:13:47.876Z,50.40
2019-03-21T00:14:47.871Z,62.20
2019-03-21T00:15:47.858Z,49.79
2019-03-21T00:16:47.998Z,61.79
2019-03-21T00:17:47.835Z,52.50
2019-03-21T00:18:47.826Z,49.70
2019-03-21T00:19:47.846Z,32.40
2019-03-21T00:20:47.828Z,22.60
2019-03-21T00:21:47.791Z,30.29
2019-03-21T00:22:47.833Z,30.00
2019-03-21T00:23:47.772Z,29.10
2019-03-21T00:24:47.759Z,31.60
2019-03-21T00:25:47.752Z,39.29
2019-03-21T00:26:47.743Z,36.20
2019-03-21T00:27:47.737Z,48.70
2019-03-21T00:28:47.824Z,55.29
2019-03-21T00:29:47.706Z,56.70
2019-03-21T00:30:47.700Z,61.90
2019-03-21T00:31:47.689Z,44.40
2019-03-21T00:32:47.678Z,62.90
2019-03-21T00:33:47.671Z,52.79
2019-03-21T00:34:47.859Z,55.09
2019-03-21T00:35:47.648Z,45.20
2019-03-21T00:36:47.654Z,36.40
2019-03-21T00:37:47.621Z,41.90
2019-03-21T00:38:47.616Z,47.09
2019-03-21T00:39:47.604Z,45.70
2019-03-21T00:40:47.643Z,49.70
2019-03-21T00:41:47.582Z,44.29
2019-03-21T00:42:47.571Z,56.09
2019-03-21T00:43:47.570Z,47.79
2019-03-21T00:44:47.549Z,64.09
2019-03-21T00:45:47.539Z,49.09
2019-03-21T00:46:47.632Z,51.50
2019-03-21T00:47:47.518Z,65.09
2019-03-21T00:48:47.504Z,54.09
2019-03-21T00:49:47.499Z,61.79
2019-03-21T00:50:47.489Z,61.20
2019-03-21T00:51:47.475Z,48.09
2019-03-21T00:52:47.617Z,79.90
2019-03-21T00:53:47.456Z,53.00
2019-03-21T00:54:47.443Z,61.59
2019-03-21T00:55:47.431Z,54.09
2019-03-21T00:56:47.421Z,59.29
2019-03-21T00:57:47.414Z,68.19
2019-03-21T00:58:47.453Z,64.69
2019-03-21T00:59:47.387Z,59.90
2019-03-21T01:00:47.385Z,47.90
2019-03-21T01:01:47.370Z,52.79
2019-03-21T01:02:47.355Z,59.59
2019-03-21T01:03:47.350Z,49.09
2019-03-21T01:04:47.391Z,53.20
2019-03-21T01:05:47.331Z,50.59
2019-03-21T01:06:47.317Z,50.70
2019-03-21T01:07:47.308Z,48.00
2019-03-21T01:08:47.296Z,49.79
2019-03-21T01:09:47.285Z,54.50
2019-03-21T01:10:47.528Z,51.59
2019-03-21T01:11:47.261Z,53.29
2019-03-21T01:12:47.255Z,38.29
2019-03-21T01:13:47.245Z,38.29
2019-03-21T01:14:47.229Z,38.50
2019-03-21T01:15:47.222Z,37.29
2019-03-21T01:16:47.262Z,41.50
2019-03-21T01:17:47.197Z,29.89
2019-03-21T01:18:47.192Z,33.00
2019-03-21T01:19:47.182Z,32.79
2019-03-21T01:20:47.171Z,33.40
2019-03-21T01:21:47.159Z,33.29
2019-03-21T01:22:47.249Z,32.00
2019-03-21T01:23:47.137Z,43.70
2019-03-21T01:24:47.125Z,38.90
2019-03-21T01:25:47.117Z,39.29
2019-03-21T01:26:47.105Z,40.29
2019-03-21T01:27:47.095Z,38.70
2019-03-21T01:28:47.240Z,40.09
2019-03-21T01:29:47.078Z,39.29
2019-03-21T01:30:47.060Z,28.60
2019-03-21T01:31:47.058Z,43.09
2019-03-21T01:32:47.045Z,57.20
2019-03-21T01:33:47.033Z,42.59
2019-03-21T01:34:47.071Z,39.40
2019-03-21T01:35:47.011Z,51.59
2019-03-21T01:36:46.999Z,31.70
2019-03-21T01:37:46.987Z,37.90
2019-03-21T01:38:46.976Z,28.79
2019-03-21T01:39:46.967Z,27.60
2019-03-21T01:40:47.011Z,27.29
2019-03-21T01:41:46.946Z,26.00
2019-03-21T01:42:46.941Z,26.70
2019-03-21T01:43:46.927Z,30.10
2019-03-21T01:44:46.915Z,32.09
2019-03-21T01:45:46.901Z,30.70
2019-03-21T01:46:47.046Z,35.50
2019-03-21T01:47:46.884Z,30.00
2019-03-21T01:48:46.875Z,27.50
2019-03-21T01:49:46.862Z,25.00
2019-03-21T01:50:46.850Z,21.20
2019-03-21T01:51:46.842Z,24.20
2019-03-21T01:52:46.928Z,24.29
2019-03-21T01:53:46.821Z,26.20
2019-03-21T01:54:46.814Z,32.50
2019-03-21T01:55:46.801Z,32.29
2019-03-21T01:56:46.788Z,39.40
2019-03-21T01:57:46.775Z,29.79
2019-03-21T01:58:46.869Z,30.39
2019-03-21T01:59:46.757Z,24.20
2019-03-21T02:00:46.751Z,24.70
2019-03-21T02:01:46.737Z,30.29
2019-03-21T02:02:46.727Z,27.20
2019-03-21T02:03:46.716Z,28.10
2019-03-21T02:04:46.857Z,29.00
2019-03-21T02:05:46.693Z,27.89
2019-03-21T02:06:46.683Z,33.20
2019-03-21T02:07:46.673Z,20.29
2019-03-21T02:08:46.662Z,23.89
2019-03-21T02:09:46.648Z,33.50
2019-03-21T02:10:46.687Z,24.39
2019-03-21T02:11:46.627Z,25.00
2019-03-21T02:12:46.618Z,26.00
2019-03-21T02:13:46.607Z,30.10
2019-03-21T02:14:52.053Z,33.09
2019-03-21T02:15:46.640Z,40.70
2019-03-21T02:16:46.674Z,34.00
2019-03-21T02:17:46.559Z,41.90
2019-03-21T02:18:46.555Z,49.20
2019-03-21T02:19:46.547Z,46.50
2019-03-21T02:20:46.535Z,27.89
2019-03-21T02:21:46.525Z,39.50
2019-03-21T02:22:46.663Z,31.39
2019-03-21T02:23:46.503Z,21.10
2019-03-21T02:24:46.492Z,33.79
2019-03-21T02:25:46.483Z,43.70
2019-03-21T02:26:46.470Z,37.50
2019-03-21T02:27:46.456Z,38.29
2019-03-21T02:28:46.552Z,39.40
2019-03-21T02:29:46.438Z,30.39
2019-03-21T02:30:46.432Z,34.79
2019-03-21T02:31:46.421Z,30.39
2019-03-21T02:32:46.411Z,33.20
2019-03-21T02:33:46.426Z,26.60
2019-03-21T02:34:46.484Z,33.59
2019-03-21T02:35:46.376Z,28.89
2019-03-21T02:36:46.372Z,34.70
2019-03-21T02:37:46.448Z,36.00
2019-03-21T02:38:46.345Z,27.50
2019-03-21T02:39:58.907Z,31.10
2019-03-21T02:40:47.471Z,31.70
2019-03-21T02:41:46.311Z,33.29
2019-03-21T02:42:46.306Z,32.50
2019-03-21T02:43:46.292Z,38.70
2019-03-21T02:44:46.431Z,32.59
2019-03-21T02:45:46.272Z,27.89
2019-03-21T02:46:46.310Z,27.79
2019-03-21T02:47:46.263Z,24.10
2019-03-21T02:48:46.239Z,58.29
2019-03-21T02:49:46.226Z,32.29
2019-03-21T02:50:46.226Z,28.60
2019-03-21T02:51:46.217Z,28.60
2019-03-21T02:52:46.248Z,26.10
2019-03-21T02:53:46.182Z,29.39
2019-03-21T02:54:46.173Z,31.89
2019-03-21T02:55:46.158Z,30.79
2019-03-21T02:56:46.160Z,32.09
2019-03-21T02:57:46.144Z,31.29
2019-03-21T02:58:46.184Z,32.09
2019-03-21T02:59:46.116Z,35.00
2019-03-21T03:00:46.107Z,36.00
2019-03-21T03:01:46.099Z,39.70
2019-03-21T03:02:46.092Z,42.00
2019-03-21T03:03:46.080Z,39.40
2019-03-21T03:04:46.121Z,44.50
2019-03-21T03:05:46.060Z,43.70
2019-03-21T03:06:46.053Z,45.20
2019-03-21T03:07:46.041Z,46.50
2019-03-21T03:08:46.033Z,49.00
2019-03-21T03:09:46.021Z,49.79
2019-03-21T03:10:46.112Z,49.50
2019-03-21T03:11:45.997Z,53.29
2019-03-21T03:12:45.988Z,44.20
2019-03-21T03:13:45.979Z,44.90
2019-03-21T03:14:45.973Z,49.40
2019-03-21T03:15:45.953Z,45.70
2019-03-21T03:16:45.995Z,44.90
2019-03-21T03:17:45.937Z,45.40
2019-03-21T03:18:45.925Z,45.70
2019-03-21T03:19:45.916Z,45.59
2019-03-21T03:20:45.902Z,39.40
2019-03-21T03:21:45.903Z,46.29
2019-03-21T03:22:45.933Z,47.00
2019-03-21T03:23:45.871Z,43.40
2019-03-21T03:24:45.865Z,46.40
2019-03-21T03:25:45.854Z,42.70
2019-03-21T03:26:45.842Z,46.20
2019-03-21T03:27:45.831Z,48.79
2019-03-21T03:28:45.871Z,45.50
2019-03-21T03:29:45.810Z,45.40
2019-03-21T03:30:45.801Z,42.40
2019-03-21T03:31:45.828Z,43.29
2019-03-21T03:32:45.783Z,46.09
2019-03-21T03:33:45.779Z,45.40
2019-03-21T03:34:45.875Z,48.40
2019-03-21T03:35:45.744Z,51.79
2019-03-21T03:36:45.737Z,41.79
2019-03-21T03:37:45.726Z,51.90
2019-03-21T03:38:45.713Z,51.00
2019-03-21T03:39:45.706Z,43.40
2019-03-21T03:40:45.800Z,42.40
2019-03-21T03:41:45.698Z,50.90
2019-03-21T03:42:45.674Z,45.59
2019-03-21T03:43:45.680Z,48.20
2019-03-21T03:44:45.652Z,53.29
2019-03-21T03:45:45.642Z,52.20
2019-03-21T03:46:45.682Z,48.59
2019-03-21T03:47:45.622Z,49.29
2019-03-21T03:48:45.619Z,47.79
2019-03-21T03:49:45.600Z,45.29
2019-03-21T03:50:45.600Z,46.29
2019-03-21T03:51:45.582Z,44.90
2019-03-21T03:52:45.622Z,48.79
2019-03-21T03:53:45.555Z,49.79
2019-03-21T03:54:45.550Z,46.00
2019-03-21T03:55:45.538Z,47.59
2019-03-21T03:56:45.524Z,54.00
2019-03-21T03:57:45.516Z,51.29
2019-03-21T03:58:45.554Z,55.79
2019-03-21T03:59:45.501Z,56.79
2019-03-21T04:00:45.493Z,57.00
2019-03-21T04:01:45.472Z,54.90
2019-03-21T04:02:45.464Z,66.50
2019-03-21T04:03:45.459Z,60.90
2019-03-21T04:04:45.498Z,57.20
2019-03-21T04:05:45.431Z,68.19
2019-03-21T04:06:45.430Z,63.90
2019-03-21T04:07:45.414Z,62.20
2019-03-21T04:08:45.399Z,67.00
2019-03-21T04:09:45.391Z,79.00
2019-03-21T04:10:45.427Z,85.30
2019-03-21T04:11:45.373Z,81.80
2019-03-21T04:12:45.362Z,82.69
2019-03-21T04:13:45.347Z,89.80
2019-03-21T04:14:45.354Z,84.80
2019-03-21T04:15:52.685Z,102.80
2019-03-21T04:16:46.480Z,102.90
2019-03-21T04:17:45.311Z,90.80
2019-03-21T04:18:45.317Z,103.90
2019-03-21T04:19:45.308Z,93.59
2019-03-21T04:20:45.271Z,100.09
2019-03-21T04:21:45.265Z,95.00
2019-03-21T04:22:45.356Z,90.80
2019-03-21T04:23:45.283Z,73.50
2019-03-21T04:24:45.233Z,63.29
2019-03-21T04:25:45.216Z,50.40
2019-03-21T04:26:45.218Z,54.59
2019-03-21T04:27:45.201Z,32.90
2019-03-21T04:28:45.291Z,36.09
2019-03-21T04:29:45.176Z,32.40
2019-03-21T04:30:45.166Z,28.29
2019-03-21T04:31:45.159Z,36.70
2019-03-21T04:32:45.149Z,31.39
2019-03-21T04:33:45.142Z,33.09
2019-03-21T04:34:45.178Z,31.29
2019-03-21T04:35:45.118Z,34.50
2019-03-21T04:36:45.108Z,31.39
2019-03-21T04:37:45.098Z,31.89
2019-03-21T04:38:45.086Z,27.10
2019-03-21T04:39:45.076Z,23.70
2019-03-21T04:40:45.119Z,34.70
2019-03-21T04:41:45.063Z,34.59
2019-03-21T04:42:45.046Z,39.70
2019-03-21T04:43:45.032Z,48.50
2019-03-21T04:44:45.028Z,33.50
2019-03-21T04:45:45.012Z,36.59
2019-03-21T04:46:45.054Z,42.29
2019-03-21T04:47:44.991Z,35.59
2019-03-21T04:48:44.977Z,35.59
2019-03-21T04:49:44.973Z,40.79
2019-03-21T04:50:44.960Z,36.70
2019-03-21T04:51:44.948Z,39.70
2019-03-21T04:52:44.989Z,41.00
2019-03-21T04:53:44.930Z,48.09
2019-03-21T04:54:44.918Z,43.70
2019-03-21T04:55:44.904Z,51.00
2019-03-21T04:56:44.897Z,54.20
2019-03-21T04:57:44.885Z,49.50
2019-03-21T04:58:44.925Z,48.00
2019-03-21T04:59:44.878Z,54.20
2019-03-21T05:00:44.856Z,52.09
2019-03-21T05:01:44.843Z,48.20
2019-03-21T05:02:44.831Z,51.40
2019-03-21T05:03:44.821Z,51.70
2019-03-21T05:04:44.859Z,51.50
2019-03-21T05:05:44.805Z,44.29
2019-03-21T05:06:44.792Z,45.40
2019-03-21T05:07:44.834Z,48.70
2019-03-21T05:08:44.771Z,52.40
2019-03-21T05:09:44.762Z,45.09
2019-03-21T05:10:44.802Z,43.70
2019-03-21T05:11:44.739Z,44.40
2019-03-21T05:12:44.733Z,47.09
2019-03-21T05:13:44.720Z,49.40
2019-03-21T05:14:44.710Z,48.79
2019-03-21T05:15:44.700Z,35.40
2019-03-21T05:16:44.742Z,47.40
2019-03-21T05:17:44.678Z,39.00
2019-03-21T05:18:44.666Z,36.50
2019-03-21T05:19:44.660Z,43.70
2019-03-21T05:20:44.649Z,47.79
2019-03-21T05:21:44.633Z,36.00
2019-03-21T05:22:44.731Z,31.70
2019-03-21T05:23:44.617Z,35.20
2019-03-21T05:24:44.604Z,30.70
2019-03-21T05:25:44.593Z,23.70
2019-03-21T05:26:44.582Z,18.00
2019-03-21T05:27:44.576Z,22.70
2019-03-21T05:28:44.615Z,21.50
2019-03-21T05:29:44.553Z,20.29
2019-03-21T05:30:44.543Z,19.70
2019-03-21T05:31:44.536Z,21.29
2019-03-21T05:32:44.524Z,18.20
2019-03-21T05:33:44.515Z,21.89
2019-03-21T05:34:44.554Z,19.89
2019-03-21T05:35:44.494Z,18.60
2019-03-21T05:36:44.489Z,25.29
2019-03-21T05:37:44.477Z,23.79
2019-03-21T05:38:44.459Z,25.39
2019-03-21T05:39:44.451Z,22.29
2019-03-21T05:40:44.493Z,23.60
2019-03-21T05:41:44.431Z,23.89
2019-03-21T05:42:44.425Z,28.39
2019-03-21T05:43:44.406Z,25.70
2019-03-21T05:44:44.403Z,25.79
2019-03-21T05:45:44.392Z,28.79
2019-03-21T05:46:44.427Z,24.20
2019-03-21T05:47:44.369Z,25.29
2019-03-21T05:48:44.359Z,25.10
2019-03-21T05:49:44.347Z,23.20
2019-03-21T05:50:44.338Z,22.79
2019-03-21T05:51:44.328Z,29.70
2019-03-21T05:52:44.371Z,26.10
2019-03-21T05:53:44.310Z,25.39
2019-03-21T05:54:44.297Z,23.39
2019-03-21T05:55:44.282Z,25.29
2019-03-21T05:56:44.273Z,40.20
2019-03-21T05:57:44.265Z,24.70
2019-03-21T05:58:44.350Z,25.50
2019-03-21T05:59:44.239Z,21.00
2019-03-21T06:00:44.246Z,21.29
2019-03-21T06:01:44.218Z,21.89
2019-03-21T06:02:44.207Z,23.79
2019-03-21T06:03:44.197Z,21.50
2019-03-21T06:04:44.295Z,20.70
2019-03-21T06:05:44.179Z,20.29
2019-03-21T06:06:44.168Z,25.20
2019-03-21T06:07:44.160Z,24.60
2019-03-21T06:08:44.148Z,25.20
2019-03-21T06:09:44.136Z,17.00
2019-03-21T06:10:44.177Z,17.89
2019-03-21T06:11:44.107Z,19.60
2019-03-21T06:12:44.131Z,27.60
2019-03-21T06:13:44.092Z,24.39
2019-03-21T06:14:44.079Z,27.00
2019-03-21T06:15:44.070Z,27.50
2019-03-21T06:16:44.108Z,20.39
2019-03-21T06:17:44.044Z,19.79
2019-03-21T06:18:44.038Z,17.10
2019-03-21T06:19:44.026Z,19.00
2019-03-21T06:20:44.016Z,22.60
2019-03-21T06:21:44.001Z,18.89
2019-03-21T06:22:44.094Z,19.89
2019-03-21T06:23:43.982Z,20.39
2019-03-21T06:24:43.973Z,19.70
2019-03-21T06:25:43.964Z,21.89
2019-03-21T06:26:43.948Z,21.39
2019-03-21T06:27:43.938Z,16.70
2019-03-21T06:28:43.982Z,17.39
2019-03-21T06:29:43.918Z,17.79
2019-03-21T06:30:43.910Z,17.89
2019-03-21T06:31:43.898Z,20.00
2019-03-21T06:32:43.887Z,18.00
2019-03-21T06:33:43.874Z,16.29
2019-03-21T06:34:43.912Z,16.89
2019-03-21T06:35:43.857Z,15.19
2019-03-21T06:36:43.842Z,17.00
2019-03-21T06:37:43.844Z,16.70
2019-03-21T06:38:43.826Z,19.10
2019-03-21T06:39:43.810Z,16.39
2019-03-21T06:40:43.901Z,16.00
2019-03-21T06:41:43.790Z,25.00
2019-03-21T06:42:43.783Z,17.60
2019-03-21T06:43:43.767Z,18.89
2019-03-21T06:44:43.760Z,20.50
2019-03-21T06:45:48.144Z,17.79
2019-03-21T06:46:49.317Z,19.70
2019-03-21T06:47:44.829Z,17.79
2019-03-21T06:48:43.720Z,19.00
2019-03-21T06:49:46.305Z,17.20
2019-03-21T06:50:43.701Z,19.89
2019-03-21T06:51:43.688Z,18.50
2019-03-21T06:52:43.732Z,17.89
2019-03-21T06:53:43.665Z,15.19
2019-03-21T06:54:43.657Z,17.20
2019-03-21T06:55:43.646Z,16.29
2019-03-21T06:56:43.636Z,16.50
2019-03-21T06:57:43.626Z,18.00
2019-03-21T06:58:43.662Z,15.10
2019-03-21T06:59:43.605Z,16.20
2019-03-21T07:00:43.592Z,17.00
2019-03-21T07:01:43.587Z,14.89
2019-03-21T07:02:43.575Z,20.00
2019-03-21T07:03:43.558Z,21.00
2019-03-21T07:04:43.603Z,14.69
2019-03-21T07:05:43.543Z,20.79
2019-03-21T07:06:43.531Z,21.00
2019-03-21T07:07:43.525Z,14.00
2019-03-21T07:08:43.513Z,26.00
2019-03-21T07:09:43.497Z,18.89
2019-03-21T07:10:43.541Z,17.70
2019-03-21T07:11:43.471Z,18.50
2019-03-21T07:12:43.465Z,17.60
2019-03-21T07:13:43.453Z,17.60
2019-03-21T07:14:43.443Z,18.29
2019-03-21T07:15:43.439Z,15.39
2019-03-21T07:16:43.471Z,17.89
2019-03-21T07:17:43.410Z,22.39
2019-03-21T07:18:43.399Z,15.60
2019-03-21T07:19:43.413Z,18.70
2019-03-21T07:20:43.379Z,17.29
2019-03-21T07:21:43.367Z,16.79
2019-03-21T07:22:43.459Z,20.00
2019-03-21T07:23:43.346Z,23.20
2019-03-21T07:24:43.341Z,14.89
2019-03-21T07:25:43.336Z,21.29
2019-03-21T07:26:43.314Z,14.89
2019-03-21T07:27:43.303Z,16.20
2019-03-21T07:28:43.388Z,16.79
2019-03-21T07:29:43.282Z,16.89
2019-03-21T07:30:43.273Z,18.79
2019-03-21T07:31:43.256Z,15.80
2019-03-21T07:32:43.256Z,16.39
2019-03-21T07:33:43.237Z,17.29
2019-03-21T07:34:43.282Z,17.39
2019-03-21T07:35:43.219Z,16.60
2019-03-21T07:36:43.208Z,19.89
2019-03-21T07:37:43.195Z,24.79
2019-03-21T07:38:43.182Z,20.89
2019-03-21T07:39:43.175Z,20.00
2019-03-21T07:40:43.263Z,17.50
2019-03-21T07:41:43.152Z,17.60
2019-03-21T07:42:43.140Z,18.89
2019-03-21T07:43:43.131Z,19.39
2019-03-21T07:44:43.117Z,17.20
2019-03-21T07:45:43.107Z,16.50
2019-03-21T07:46:43.150Z,18.10
2019-03-21T07:47:43.092Z,16.70
2019-03-21T07:48:43.077Z,18.20
2019-03-21T07:49:43.070Z,18.00
2019-03-21T07:50:43.056Z,17.60
2019-03-21T07:51:45.167Z,14.89
2019-03-21T07:52:43.084Z,15.00
2019-03-21T07:53:43.028Z,15.60
2019-03-21T07:54:43.015Z,17.00
2019-03-21T07:55:43.005Z,14.19
2019-03-21T07:56:43.000Z,13.89
2019-03-21T07:57:42.979Z,14.39
2019-03-21T07:58:43.019Z,15.00
2019-03-21T07:59:42.962Z,13.10
2019-03-21T08:00:42.947Z,13.39
2019-03-21T08:01:42.945Z,14.60
2019-03-21T08:02:42.929Z,22.39
2019-03-21T08:03:42.914Z,30.89
2019-03-21T08:04:42.958Z,18.89
2019-03-21T08:05:42.893Z,12.00
2019-03-21T08:06:42.886Z,15.50
2019-03-21T08:07:42.878Z,13.50
2019-03-21T08:08:42.859Z,16.79
2019-03-21T08:09:42.945Z,25.50
2019-03-21T08:10:42.895Z,15.89
2019-03-21T08:11:42.833Z,13.00
2019-03-21T08:12:42.822Z,15.10
2019-03-21T08:13:42.813Z,16.70
2019-03-21T08:14:42.800Z,18.50
2019-03-21T08:15:42.792Z,14.69
2019-03-21T08:16:42.884Z,14.80
2019-03-21T08:17:42.770Z,13.50
2019-03-21T08:18:42.759Z,11.50
2019-03-21T08:19:42.751Z,11.10
2019-03-21T08:20:42.736Z,15.00
2019-03-21T08:21:42.727Z,14.00
2019-03-21T08:22:42.764Z,11.30
2019-03-21T08:23:42.703Z,13.00
2019-03-21T08:24:42.700Z,13.89
2019-03-21T08:25:42.687Z,11.50
2019-03-21T08:26:42.680Z,17.10
2019-03-21T08:27:42.667Z,13.69
2019-03-21T08:28:42.704Z,13.80
2019-03-21T08:29:42.643Z,14.60
2019-03-21T08:30:42.632Z,12.39
2019-03-21T08:31:42.619Z,17.20
2019-03-21T08:32:42.609Z,17.60
2019-03-21T08:33:42.600Z,15.60
2019-03-21T08:34:42.643Z,11.60
2019-03-21T08:35:42.582Z,14.10
2019-03-21T08:36:42.566Z,15.10
2019-03-21T08:37:42.558Z,16.89
2019-03-21T08:38:42.559Z,10.10
2019-03-21T08:39:42.534Z,12.10
2019-03-21T08:40:42.848Z,12.19
2019-03-21T08:41:42.518Z,14.89
2019-03-21T08:42:42.507Z,15.50
2019-03-21T08:43:42.497Z,14.30
2019-03-21T08:44:42.490Z,10.89
2019-03-21T08:45:42.476Z,12.19
2019-03-21T08:46:42.514Z,15.80
2019-03-21T08:47:42.450Z,19.50
2019-03-21T08:48:42.444Z,12.30
2019-03-21T08:49:42.429Z,13.30
2019-03-21T08:50:42.423Z,11.89
2019-03-21T08:51:42.410Z,15.60
2019-03-21T08:52:42.449Z,15.00
2019-03-21T08:53:42.387Z,16.70
2019-03-21T08:54:42.380Z,15.30
2019-03-21T08:55:42.366Z,15.39
2019-03-21T08:56:42.362Z,12.69
2019-03-21T08:57:42.342Z,10.80
2019-03-21T08:58:42.383Z,14.00
2019-03-21T08:59:42.324Z,12.60
2019-03-21T09:00:42.312Z,18.29
2019-03-21T09:01:42.299Z,11.30
2019-03-21T09:02:42.289Z,13.50
2019-03-21T09:03:42.291Z,12.69
2019-03-21T09:04:42.373Z,9.50
2019-03-21T09:05:42.263Z,11.00
2019-03-21T09:06:42.251Z,10.30
2019-03-21T09:07:42.238Z,10.60
2019-03-21T09:08:42.226Z,12.10
2019-03-21T09:09:42.216Z,14.00
2019-03-21T09:10:42.313Z,8.39
2019-03-21T09:11:42.191Z,15.19
2019-03-21T09:12:42.738Z,12.80
2019-03-21T09:13:42.169Z,11.89
2019-03-21T09:14:42.163Z,14.89
2019-03-21T09:15:42.150Z,12.19
2019-03-21T09:16:42.191Z,16.00
2019-03-21T09:17:42.125Z,13.50
2019-03-21T09:18:42.116Z,14.00
2019-03-21T09:19:42.109Z,15.69
2019-03-21T09:20:42.093Z,15.60
2019-03-21T09:21:42.085Z,13.30
2019-03-21T09:22:42.124Z,15.80
2019-03-21T09:23:42.063Z,18.39
2019-03-21T09:24:42.055Z,15.80
2019-03-21T09:25:42.042Z,11.80
2019-03-21T09:26:42.032Z,15.39
2019-03-21T09:27:42.019Z,14.00
2019-03-21T09:28:42.114Z,16.29
2019-03-21T09:29:52.811Z,11.69
2019-03-21T09:31:06.797Z,12.69
2019-03-21T09:32:06.820Z,12.10
2019-03-21T09:33:06.781Z,16.20
2019-03-21T09:34:06.819Z,15.50
2019-03-21T09:35:06.761Z,12.69
2019-03-21T09:36:06.748Z,15.39
2019-03-21T09:37:06.734Z,15.50
2019-03-21T09:38:06.727Z,21.10
2019-03-21T09:39:06.717Z,15.50
2019-03-21T09:40:06.752Z,16.79
2019-03-21T09:41:06.696Z,17.39
2019-03-21T09:42:06.684Z,17.20
2019-03-21T09:43:06.675Z,12.39
2019-03-21T09:44:06.661Z,17.20
2019-03-21T09:45:06.653Z,15.30
2019-03-21T09:46:06.696Z,11.19
2019-03-21T09:47:06.697Z,13.39
2019-03-21T09:48:06.622Z,16.60
2019-03-21T09:49:06.614Z,16.60
2019-03-21T09:50:06.599Z,15.60
2019-03-21T09:51:06.591Z,15.50
2019-03-21T09:52:06.628Z,18.00
2019-03-21T09:53:06.573Z,18.70
2019-03-21T09:54:09.867Z,19.39
2019-03-21T09:55:06.551Z,15.60
2019-03-21T09:56:06.538Z,16.10
2019-03-21T09:57:06.528Z,17.29
2019-03-21T09:58:06.621Z,13.50
2019-03-21T09:59:06.513Z,17.79
2019-03-21T10:00:06.508Z,17.10
2019-03-21T10:01:06.486Z,13.89
2019-03-21T10:02:06.474Z,14.80
2019-03-21T10:03:06.468Z,16.00
2019-03-21T10:04:06.504Z,17.00
2019-03-21T10:05:06.441Z,16.00
2019-03-21T10:06:06.435Z,16.50
2019-03-21T10:07:06.425Z,17.89
2019-03-21T10:08:06.415Z,13.50
2019-03-21T10:09:06.405Z,15.60
2019-03-21T10:10:06.447Z,15.10
2019-03-21T10:11:06.382Z,14.00
2019-03-21T10:12:06.372Z,16.89
2019-03-21T10:13:06.362Z,18.10
2019-03-21T10:14:06.352Z,15.39
2019-03-21T10:15:06.341Z,12.69
2019-03-21T10:16:06.385Z,16.00
2019-03-21T10:17:06.323Z,14.60
2019-03-21T10:18:06.307Z,13.60
2019-03-21T10:19:06.302Z,10.69
2019-03-21T10:20:06.291Z,22.10
2019-03-21T10:21:06.280Z,23.39
2019-03-21T10:22:06.368Z,11.69
2019-03-21T10:23:06.258Z,14.69
2019-03-21T10:24:06.245Z,13.10
2019-03-21T10:25:06.238Z,10.00
2019-03-21T10:26:06.228Z,13.00
2019-03-21T10:27:06.215Z,14.30
2019-03-21T10:28:06.310Z,13.60
2019-03-21T10:29:06.197Z,10.69
2019-03-21T10:30:06.190Z,14.00
2019-03-21T10:31:06.177Z,15.80
2019-03-21T10:32:14.241Z,15.69
2019-03-21T10:33:31.020Z,19.39
2019-03-21T10:34:31.007Z,21.20
2019-03-21T10:35:32.653Z,22.60
2019-03-21T10:36:30.987Z,20.79
2019-03-21T10:37:30.980Z,58.50
2019-03-21T10:38:31.073Z,57.50
2019-03-21T10:39:30.958Z,99.90
2019-03-21T10:40:30.949Z,67.59
2019-03-21T10:41:30.936Z,116.30
2019-03-21T10:42:30.926Z,73.50
2019-03-21T10:43:30.918Z,62.79
2019-03-21T10:44:31.006Z,40.79
2019-03-21T10:45:30.893Z,36.70
2019-03-21T10:46:30.889Z,38.90
2019-03-21T10:47:30.876Z,30.89
2019-03-21T10:48:30.871Z,27.60
2019-03-21T10:49:30.852Z,12.00
2019-03-21T10:50:30.894Z,12.19
2019-03-21T10:51:30.832Z,11.00
2019-03-21T10:52:30.825Z,7.30
2019-03-21T10:53:30.815Z,9.19
2019-03-21T10:54:30.804Z,7.19
2019-03-21T10:55:30.795Z,7.40
2019-03-21T10:56:30.833Z,9.80
2019-03-21T10:57:30.775Z,12.19
2019-03-21T10:58:30.765Z,9.89
2019-03-21T10:59:30.753Z,11.50
2019-03-21T11:00:30.742Z,11.19
2019-03-21T11:01:30.728Z,10.80
2019-03-21T11:02:30.773Z,11.00
2019-03-21T11:03:30.712Z,11.69
2019-03-21T11:04:30.702Z,56.90
2019-03-21T11:05:30.693Z,65.90
2019-03-21T11:06:30.678Z,56.50
2019-03-21T11:07:30.673Z,62.90
2019-03-21T11:08:30.712Z,62.59
2019-03-21T11:09:30.652Z,65.59
2019-03-21T11:10:30.672Z,32.40
2019-03-21T11:11:30.627Z,23.70
2019-03-21T11:12:30.621Z,28.39
2019-03-21T11:13:30.609Z,31.20
2019-03-21T11:14:30.653Z,33.40
2019-03-21T11:15:30.598Z,48.90
2019-03-21T11:16:31.564Z,40.09
2019-03-21T11:17:30.585Z,58.79
2019-03-21T11:18:36.073Z,60.90
2019-03-21T11:19:55.413Z,24.70
2019-03-21T11:20:55.403Z,24.00
2019-03-21T11:22:05.809Z,62.59
2019-03-21T11:23:20.200Z,77.50
2019-03-21T11:24:20.188Z,67.90
2019-03-21T11:25:20.225Z,39.00
2019-03-21T11:26:20.172Z,48.09
2019-03-21T11:27:20.154Z,45.50
2019-03-21T11:28:20.142Z,22.20
2019-03-21T11:29:20.134Z,25.10
2019-03-21T11:30:20.122Z,39.20
2019-03-21T11:31:20.167Z,21.89
2019-03-21T11:32:20.101Z,38.20
2019-03-21T11:33:20.094Z,41.00
2019-03-21T11:34:20.081Z,29.70
2019-03-21T11:35:20.076Z,41.29
2019-03-21T11:36:20.061Z,36.79
2019-03-21T11:37:20.097Z,37.00
2019-03-21T11:38:20.033Z,47.09
2019-03-21T11:39:20.028Z,51.00
2019-03-21T11:40:20.015Z,36.79
2019-03-21T11:41:20.004Z,33.59
2019-03-21T11:42:19.996Z,21.39
2019-03-21T11:43:20.091Z,14.80
2019-03-21T11:44:19.975Z,18.29
2019-03-21T11:45:19.977Z,24.39
2019-03-21T11:46:19.957Z,15.60
2019-03-21T11:47:19.943Z,14.39
2019-03-21T11:48:19.941Z,14.80
2019-03-21T11:49:19.997Z,9.80
2019-03-21T11:50:19.911Z,7.09
2019-03-21T11:51:19.900Z,10.10
2019-03-21T11:52:19.891Z,10.60
2019-03-21T11:53:19.907Z,8.80
2019-03-21T11:54:19.865Z,5.50
2019-03-21T11:55:20.078Z,8.60
2019-03-21T11:56:19.879Z,44.70
2019-03-21T11:57:19.832Z,47.40
2019-03-21T11:58:19.827Z,72.50
2019-03-21T11:59:19.815Z,67.59
2019-03-21T12:00:19.808Z,46.00
2019-03-21T12:01:19.848Z,47.59
2019-03-21T12:02:26.987Z,38.50
2019-03-21T12:03:44.588Z,11.39
2019-03-21T12:04:44.576Z,11.39
2019-03-21T12:05:44.565Z,9.50
2019-03-21T12:06:44.608Z,9.39
2019-03-21T12:07:44.546Z,25.00
2019-03-21T12:08:44.535Z,62.70
2019-03-21T12:09:44.522Z,56.59
2019-03-21T12:10:44.513Z,30.20
2019-03-21T12:11:44.497Z,24.00
2019-03-21T12:12:44.592Z,18.89
2019-03-21T12:13:44.475Z,13.89
2019-03-21T12:14:44.470Z,11.69
2019-03-21T12:15:44.455Z,19.29
2019-03-21T12:16:44.445Z,38.79
2019-03-21T12:17:44.437Z,51.40
2019-03-21T12:18:44.527Z,35.00
2019-03-21T12:19:44.412Z,14.39
2019-03-21T12:20:44.404Z,8.80
2019-03-21T12:21:44.396Z,6.80
2019-03-21T12:22:44.379Z,7.69
2019-03-21T12:23:44.368Z,11.39
2019-03-21T12:24:44.407Z,7.80
2019-03-21T12:25:44.349Z,7.90
2019-03-21T12:26:44.336Z,8.19
2019-03-21T12:27:44.333Z,9.10
2019-03-21T12:28:44.314Z,8.39
2019-03-21T12:29:44.302Z,8.30
2019-03-21T12:30:44.397Z,7.69
2019-03-21T12:31:44.282Z,11.19
2019-03-21T12:32:44.272Z,9.80
2019-03-21T12:33:44.258Z,11.50
2019-03-21T12:34:44.250Z,7.90
2019-03-21T12:35:44.240Z,7.59
2019-03-21T12:36:44.277Z,7.90
2019-03-21T12:37:44.215Z,9.30
2019-03-21T12:38:44.204Z,8.89
2019-03-21T12:39:44.195Z,6.40
2019-03-21T12:40:44.184Z,7.90
2019-03-21T12:41:44.173Z,11.30
2019-03-21T12:42:44.218Z,8.30
2019-03-21T12:43:44.147Z,10.60
2019-03-21T12:44:44.136Z,8.39
2019-03-21T12:45:44.129Z,9.39
2019-03-21T12:46:44.119Z,9.89
2019-03-21T12:47:44.110Z,9.80
2019-03-21T12:48:44.199Z,10.89
2019-03-21T12:49:44.086Z,18.50
2019-03-21T12:50:44.121Z,12.50
2019-03-21T12:51:45.908Z,7.09
2019-03-21T12:52:44.056Z,8.80
2019-03-21T12:53:44.040Z,9.50
2019-03-21T12:54:44.084Z,11.10
2019-03-21T12:55:44.020Z,9.69